createdAt,value
2023-05-09T00:00:59.667Z,42.46
2023-05-09T00:03:28.863Z,42.52
2023-05-09T00:05:58.367Z,42.29
2023-05-09T00:08:28.026Z,42.21
2023-05-09T00:10:57.537Z,42.37
2023-05-09T00:13:26.964Z,42.00
2023-05-09T00:15:57.473Z,42.01
2023-05-09T00:18:31.352Z,42.61
2023-05-09T00:21:01.140Z,41.77
2023-05-09T00:23:35.695Z,42.01
2023-05-09T00:26:05.532Z,41.78
2023-05-09T00:28:35.110Z,41.55
2023-05-09T00:31:05.733Z,41.60
2023-05-09T00:33:36.485Z,41.77
2023-05-09T00:36:08.098Z,42.01
2023-05-09T00:38:39.089Z,42.04
2023-05-09T00:41:08.700Z,42.07
2023-05-09T00:43:38.077Z,42.09
2023-05-09T00:46:10.575Z,42.23
2023-05-09T00:48:44.355Z,42.45
2023-05-09T00:51:13.929Z,42.33
2023-05-09T00:53:43.158Z,42.60
2023-05-09T00:56:13.015Z,42.68
2023-05-09T00:58:46.782Z,42.96
2023-05-09T01:01:16.654Z,42.59
2023-05-09T01:03:47.612Z,42.57
2023-05-09T01:06:19.577Z,42.20
2023-05-09T01:08:51.082Z,42.45
2023-05-09T01:11:22.550Z,42.20
2023-05-09T01:13:54.081Z,42.30
2023-05-09T01:16:25.556Z,42.00
2023-05-09T01:18:58.921Z,41.92
2023-05-09T01:21:33.104Z,42.04
2023-05-09T01:24:09.880Z,42.21
2023-05-09T01:26:45.823Z,42.11
2023-05-09T01:29:36.741Z,41.74
2023-05-09T01:32:10.096Z,41.78
2023-05-09T01:34:39.762Z,41.85
2023-05-09T01:37:10.952Z,41.85
2023-05-09T01:39:41.467Z,41.69
2023-05-09T01:42:11.274Z,42.08
2023-05-09T01:44:42.981Z,41.74
2023-05-09T01:47:12.459Z,41.74
2023-05-09T01:49:41.841Z,41.88
2023-05-09T01:52:11.946Z,41.34
2023-05-09T01:54:41.213Z,41.77
2023-05-09T01:57:13.320Z,41.63
2023-05-09T01:59:44.555Z,41.76
2023-05-09T02:02:14.254Z,41.53
2023-05-09T02:04:43.466Z,41.52
2023-05-09T02:07:13.072Z,41.06
2023-05-09T02:09:44.939Z,41.33
2023-05-09T02:12:14.547Z,41.57
2023-05-09T02:14:45.322Z,41.15
2023-05-09T02:17:17.133Z,41.65
2023-05-09T02:19:46.644Z,41.40
2023-05-09T02:22:16.188Z,41.43
2023-05-09T02:24:45.833Z,41.29
2023-05-09T02:27:15.529Z,41.28
2023-05-09T02:29:48.216Z,41.43
2023-05-09T02:32:18.511Z,41.33
2023-05-09T02:34:48.119Z,41.15
2023-05-09T02:37:17.658Z,41.19
2023-05-09T02:39:46.836Z,41.39
2023-05-09T02:42:20.885Z,41.19
2023-05-09T02:44:51.512Z,41.27
2023-05-09T02:47:21.084Z,41.27
2023-05-09T02:49:50.250Z,41.00
2023-05-09T02:52:19.927Z,41.21
2023-05-09T02:54:49.329Z,41.00
2023-05-09T02:57:18.849Z,41.30
2023-05-09T02:59:48.070Z,41.12
2023-05-09T03:02:24.683Z,41.02
2023-05-09T03:04:54.003Z,40.94
2023-05-09T03:07:23.650Z,40.88
2023-05-09T03:09:52.969Z,41.32
2023-05-09T03:12:22.549Z,41.29
2023-05-09T03:14:51.790Z,41.18
2023-05-09T03:17:23.401Z,40.94
2023-05-09T03:19:52.558Z,41.34
2023-05-09T03:22:22.271Z,41.08
2023-05-09T03:24:51.726Z,41.16
2023-05-09T03:27:21.567Z,41.17
2023-05-09T03:29:51.016Z,41.41
2023-05-09T03:32:20.645Z,41.11
2023-05-09T03:34:51.291Z,40.88
2023-05-09T03:37:20.786Z,41.16
2023-05-09T03:39:50.246Z,41.13
2023-05-09T03:42:19.904Z,41.28
2023-05-09T03:44:49.240Z,41.02
2023-05-09T03:47:18.985Z,41.37
2023-05-09T03:49:48.379Z,41.40
2023-05-09T03:52:19.733Z,41.34
2023-05-09T03:54:49.266Z,42.07
2023-05-09T03:57:20.813Z,42.20
2023-05-09T03:59:50.292Z,42.01
2023-05-09T04:02:21.503Z,42.24
2023-05-09T04:04:54.330Z,41.83
2023-05-09T04:07:29.774Z,41.84
2023-05-09T04:09:59.221Z,41.82
2023-05-09T04:12:29.192Z,41.61
2023-05-09T04:14:58.486Z,42.14
2023-05-09T04:17:28.254Z,42.09
2023-05-09T04:19:57.803Z,42.21
2023-05-09T04:22:28.893Z,42.78
2023-05-09T04:25:01.088Z,43.52
2023-05-09T04:27:30.517Z,43.43
2023-05-09T04:29:59.711Z,42.92
2023-05-09T04:32:29.294Z,42.80
2023-05-09T04:34:59.174Z,42.87
2023-05-09T04:37:32.857Z,42.57
2023-05-09T04:40:01.932Z,42.86
2023-05-09T04:42:33.624Z,42.42
2023-05-09T04:45:03.301Z,43.02
2023-05-09T04:47:34.437Z,42.84
2023-05-09T04:50:03.771Z,43.05
2023-05-09T04:52:34.930Z,43.02
2023-05-09T04:55:04.197Z,42.97
2023-05-09T04:57:33.933Z,43.08
2023-05-09T05:00:03.177Z,43.08
2023-05-09T05:02:32.969Z,43.06
2023-05-09T05:05:17.522Z,43.24
2023-05-09T05:07:48.869Z,42.91
2023-05-09T05:10:19.594Z,42.87
2023-05-09T05:12:49.296Z,42.70
2023-05-09T05:15:19.690Z,42.78
2023-05-09T05:17:51.536Z,42.78
2023-05-09T05:20:21.441Z,42.61
2023-05-09T05:22:54.755Z,42.70
2023-05-09T05:25:24.121Z,42.70
2023-05-09T05:27:54.016Z,42.74
2023-05-09T05:30:23.440Z,42.74
2023-05-09T05:32:53.405Z,42.80
2023-05-09T05:35:23.530Z,42.69
2023-05-09T05:37:57.367Z,42.70
2023-05-09T05:40:28.772Z,43.06
2023-05-09T05:42:58.551Z,42.67
2023-05-09T05:45:29.674Z,42.93
2023-05-09T05:47:59.376Z,42.82
2023-05-09T05:50:28.597Z,42.85
2023-05-09T05:53:01.307Z,42.86
2023-05-09T05:55:30.628Z,42.64
2023-05-09T05:58:00.204Z,42.84
2023-05-09T06:00:29.775Z,42.82
2023-05-09T06:02:59.538Z,42.95
2023-05-09T06:05:28.769Z,42.68
2023-05-09T06:08:00.445Z,42.90
2023-05-09T06:10:31.112Z,42.95
2023-05-09T06:13:00.937Z,42.89
2023-05-09T06:15:33.061Z,42.94
2023-05-09T06:18:02.837Z,43.09
2023-05-09T06:20:32.016Z,42.96
2023-05-09T06:23:01.523Z,42.83
2023-05-09T06:25:32.062Z,42.67
2023-05-09T06:28:01.600Z,42.54
2023-05-09T06:30:30.979Z,42.84
2023-05-09T06:33:00.887Z,42.77
2023-05-09T06:35:32.387Z,42.50
2023-05-09T06:38:03.425Z,42.64
2023-05-09T06:40:34.125Z,42.60
2023-05-09T06:43:05.708Z,42.69
2023-05-09T06:45:35.385Z,42.71
2023-05-09T06:48:06.035Z,42.40
2023-05-09T06:50:35.427Z,42.36
2023-05-09T06:53:05.748Z,42.56
2023-05-09T06:55:36.396Z,42.36
2023-05-09T06:58:07.399Z,42.47
2023-05-09T07:00:37.027Z,42.03
2023-05-09T07:03:07.842Z,42.40
2023-05-09T07:05:37.232Z,42.13
2023-05-09T07:08:06.879Z,42.26
2023-05-09T07:10:38.768Z,42.22
2023-05-09T07:13:10.378Z,42.13
2023-05-09T07:15:42.696Z,41.98
2023-05-09T07:18:12.829Z,41.78
2023-05-09T07:20:42.096Z,42.00
2023-05-09T07:23:11.771Z,41.72
2023-05-09T07:25:42.520Z,41.76
2023-05-09T07:28:12.900Z,41.90
2023-05-09T07:30:43.775Z,41.76
2023-05-09T07:33:13.438Z,41.61
2023-05-09T07:35:42.622Z,41.69
2023-05-09T07:38:12.320Z,41.48
2023-05-09T07:40:43.030Z,41.13
2023-05-09T07:43:12.903Z,41.00
2023-05-09T07:45:42.136Z,40.86
2023-05-09T07:48:11.781Z,40.76
2023-05-09T07:50:41.282Z,40.36
2023-05-09T07:53:10.988Z,40.31
2023-05-09T07:55:40.194Z,40.19
2023-05-09T07:58:11.167Z,40.83
2023-05-09T08:00:40.420Z,40.27
2023-05-09T08:03:10.166Z,40.09
2023-05-09T08:05:39.592Z,39.93
2023-05-09T08:08:09.103Z,39.86
2023-05-09T08:10:38.266Z,39.49
2023-05-09T08:13:12.013Z,39.31
2023-05-09T08:15:41.372Z,39.26
2023-05-09T08:18:11.069Z,38.80
2023-05-09T08:20:41.832Z,38.83
2023-05-09T08:23:12.849Z,38.30
2023-05-09T08:25:42.038Z,38.66
2023-05-09T08:28:13.071Z,38.77
2023-05-09T08:30:42.284Z,38.58
2023-05-09T08:33:11.825Z,38.26
2023-05-09T08:35:41.179Z,38.44
2023-05-09T08:38:10.725Z,38.72
2023-05-09T08:40:39.909Z,38.71
2023-05-09T08:43:14.334Z,38.27
2023-05-09T08:45:44.467Z,39.07
2023-05-09T08:48:15.065Z,37.84
2023-05-09T08:50:44.288Z,37.94
2023-05-09T08:53:16.796Z,37.95
2023-05-09T08:55:47.207Z,37.54
2023-05-09T08:58:19.814Z,37.82
2023-05-09T09:00:49.024Z,37.89
2023-05-09T09:03:18.724Z,37.35
2023-05-09T09:05:48.781Z,37.29
2023-05-09T09:08:19.576Z,36.42
2023-05-09T09:10:48.803Z,36.53
2023-05-09T09:13:22.208Z,36.88
2023-05-09T09:15:51.654Z,36.41
2023-05-09T09:18:22.859Z,36.71
2023-05-09T09:20:52.830Z,36.38
2023-05-09T09:23:22.259Z,36.70
2023-05-09T09:25:56.162Z,36.27
2023-05-09T09:28:35.568Z,36.79
2023-05-09T09:31:20.402Z,36.79
2023-05-09T09:33:50.095Z,36.16
2023-05-09T09:36:27.719Z,36.75
2023-05-09T09:39:01.693Z,36.33
2023-05-09T09:41:34.193Z,36.02
2023-05-09T09:44:09.555Z,36.29
2023-05-09T09:46:45.486Z,36.40
2023-05-09T09:49:15.209Z,36.55
2023-05-09T09:51:44.453Z,35.91
2023-05-09T09:54:14.211Z,36.85
2023-05-09T09:56:46.387Z,36.63
2023-05-09T09:59:17.689Z,36.49
2023-05-09T10:02:06.677Z,36.56
2023-05-09T10:04:37.814Z,36.97
2023-05-09T10:07:07.836Z,36.53
2023-05-09T10:09:38.173Z,36.10
2023-05-09T10:12:08.093Z,35.90
2023-05-09T10:14:39.763Z,36.03
2023-05-09T10:17:09.610Z,36.14
2023-05-09T10:19:40.464Z,36.53
2023-05-09T10:22:10.330Z,36.80
2023-05-09T10:24:41.414Z,37.01
2023-05-09T10:27:11.511Z,37.03
2023-05-09T10:29:43.070Z,36.43
2023-05-09T10:32:14.224Z,36.78
2023-05-09T10:34:44.096Z,35.84
2023-05-09T10:37:13.354Z,35.65
2023-05-09T10:39:42.946Z,35.97
2023-05-09T10:42:12.604Z,35.34
2023-05-09T10:44:44.739Z,35.46
2023-05-09T10:47:14.052Z,35.29
2023-05-09T10:49:45.735Z,35.55
2023-05-09T10:52:15.918Z,35.62
2023-05-09T10:54:45.313Z,35.95
2023-05-09T10:57:16.889Z,35.62
2023-05-09T10:59:48.304Z,35.31
2023-05-09T11:02:20.156Z,35.48
2023-05-09T11:04:49.695Z,34.88
2023-05-09T11:07:25.401Z,34.90
2023-05-09T11:09:58.137Z,34.43
2023-05-09T11:12:27.309Z,34.87
2023-05-09T11:14:58.783Z,35.49
2023-05-09T11:17:32.495Z,35.54
2023-05-09T11:20:03.504Z,35.53
2023-05-09T11:22:33.489Z,34.88
2023-05-09T11:25:06.498Z,34.93
2023-05-09T11:27:39.459Z,35.39
2023-05-09T11:30:12.844Z,35.12
2023-05-09T11:32:43.124Z,34.64
2023-05-09T11:35:16.269Z,34.67
2023-05-09T11:37:49.295Z,34.18
2023-05-09T11:40:19.373Z,34.45
2023-05-09T11:42:50.515Z,34.82
2023-05-09T11:45:21.805Z,34.40
2023-05-09T11:47:51.204Z,33.99
2023-05-09T11:50:21.817Z,34.39
2023-05-09T11:52:51.064Z,33.67
2023-05-09T11:55:22.253Z,34.50
2023-05-09T11:57:53.059Z,34.02
2023-05-09T12:00:24.701Z,33.62
2023-05-09T12:02:54.255Z,33.98
2023-05-09T12:05:24.544Z,33.83
2023-05-09T12:07:55.367Z,34.10
2023-05-09T12:10:24.957Z,33.53
2023-05-09T12:12:57.293Z,34.27
2023-05-09T12:15:28.413Z,33.84
2023-05-09T12:18:07.239Z,33.77
2023-05-09T12:20:43.586Z,33.84
2023-05-09T12:23:14.661Z,33.95
2023-05-09T12:25:48.848Z,33.18
2023-05-09T12:28:18.146Z,33.87
2023-05-09T12:30:49.151Z,32.81
2023-05-09T12:33:18.366Z,33.19
2023-05-09T12:35:48.375Z,33.36
2023-05-09T12:38:22.602Z,33.14
2023-05-09T12:40:53.138Z,33.37
2023-05-09T12:43:22.419Z,33.18
2023-05-09T12:45:55.088Z,33.40
2023-05-09T12:48:24.468Z,33.47
2023-05-09T12:50:56.328Z,33.15
2023-05-09T12:53:26.125Z,32.77
2023-05-09T12:55:59.286Z,32.63
2023-05-09T12:58:30.632Z,32.78
2023-05-09T13:01:01.779Z,32.91
2023-05-09T13:03:37.940Z,33.07
2023-05-09T13:06:08.644Z,32.98
2023-05-09T13:08:40.431Z,32.85
2023-05-09T13:11:16.443Z,33.27
2023-05-09T13:13:48.410Z,32.80
2023-05-09T13:16:19.444Z,32.88
2023-05-09T13:18:48.692Z,32.85
2023-05-09T13:21:19.334Z,33.29
2023-05-09T13:23:50.268Z,33.29
2023-05-09T13:26:19.868Z,33.07
2023-05-09T13:28:49.050Z,33.09
2023-05-09T13:31:20.390Z,33.34
2023-05-09T13:33:51.698Z,32.06
2023-05-09T13:36:21.800Z,31.87
2023-05-09T13:38:53.154Z,32.45
2023-05-09T13:41:24.130Z,32.58
2023-05-09T13:43:53.378Z,31.78
2023-05-09T13:46:26.773Z,32.14
2023-05-09T13:48:58.387Z,32.16
2023-05-09T13:51:29.268Z,32.54
2023-05-09T13:53:58.747Z,32.71
2023-05-09T13:56:28.686Z,32.53
2023-05-09T13:58:57.829Z,32.21
2023-05-09T14:01:29.033Z,32.76
2023-05-09T14:03:58.297Z,32.16
2023-05-09T14:06:29.120Z,32.25
2023-05-09T14:08:58.291Z,32.97
2023-05-09T14:11:28.118Z,33.03
2023-05-09T14:13:57.336Z,32.07
2023-05-09T14:16:26.960Z,31.44
2023-05-09T14:18:57.965Z,32.16
2023-05-09T14:21:27.563Z,32.64
2023-05-09T14:24:01.358Z,32.07
2023-05-09T14:26:31.154Z,31.54
2023-05-09T14:29:00.481Z,31.69
2023-05-09T14:31:30.327Z,32.03
2023-05-09T14:34:01.419Z,31.92
2023-05-09T14:36:31.540Z,31.56
2023-05-09T14:39:00.773Z,32.64
2023-05-09T14:41:30.369Z,32.50
2023-05-09T14:43:59.490Z,32.61
2023-05-09T14:46:29.051Z,31.51
2023-05-09T14:49:04.067Z,31.20
2023-05-09T14:51:35.243Z,32.39
2023-05-09T14:54:04.796Z,32.01
2023-05-09T14:56:34.532Z,32.88
2023-05-09T14:59:04.476Z,32.59
2023-05-09T15:01:34.282Z,32.92
2023-05-09T15:04:03.876Z,30.43
2023-05-09T15:06:34.844Z,29.95
2023-05-09T15:09:04.546Z,30.04
2023-05-09T15:11:46.740Z,31.57
2023-05-09T15:14:20.965Z,31.23
2023-05-09T15:16:53.237Z,31.17
2023-05-09T15:19:22.623Z,31.48
2023-05-09T15:21:53.706Z,31.03
2023-05-09T15:24:22.922Z,31.25
2023-05-09T15:26:52.552Z,30.10
2023-05-09T15:29:21.903Z,31.23
2023-05-09T15:31:51.458Z,30.10
2023-05-09T15:34:22.438Z,30.84
2023-05-09T15:36:53.522Z,30.38
2023-05-09T15:39:22.790Z,29.76
2023-05-09T15:41:52.773Z,29.45
2023-05-09T15:44:24.487Z,29.07
2023-05-09T15:46:55.125Z,28.54
2023-05-09T15:49:24.401Z,29.34
2023-05-09T15:51:55.388Z,29.70
2023-05-09T15:54:26.307Z,29.35
2023-05-09T15:56:56.102Z,28.48
2023-05-09T15:59:27.369Z,27.96
2023-05-09T16:01:56.895Z,28.25
2023-05-09T16:04:26.071Z,28.98
2023-05-09T16:06:59.998Z,28.67
2023-05-09T16:09:29.146Z,28.40
2023-05-09T16:11:58.799Z,29.11
2023-05-09T16:14:28.137Z,28.23
2023-05-09T16:16:57.737Z,28.81
2023-05-09T16:19:26.860Z,27.64
2023-05-09T16:21:56.356Z,28.15
2023-05-09T16:24:27.157Z,29.04
2023-05-09T16:26:56.651Z,29.49
2023-05-09T16:29:27.501Z,28.99
2023-05-09T16:31:57.056Z,29.31
2023-05-09T16:34:26.216Z,28.96
2023-05-09T16:36:58.087Z,28.74
2023-05-09T16:39:28.731Z,28.34
2023-05-09T16:41:58.321Z,28.71
2023-05-09T16:44:27.540Z,29.43
2023-05-09T16:46:57.097Z,28.64
2023-05-09T16:49:26.259Z,28.56
2023-05-09T16:51:58.350Z,28.61
2023-05-09T16:54:29.005Z,29.26
2023-05-09T16:56:58.655Z,29.36
2023-05-09T16:59:27.822Z,29.26
2023-05-09T17:01:57.822Z,29.31
2023-05-09T17:04:27.652Z,28.63
2023-05-09T17:06:57.317Z,29.13
2023-05-09T17:09:26.984Z,29.15
2023-05-09T17:11:59.195Z,29.34
2023-05-09T17:14:28.405Z,29.60
2023-05-09T17:16:58.016Z,29.79
2023-05-09T17:19:27.119Z,29.63
2023-05-09T17:21:59.079Z,29.71
2023-05-09T17:24:28.183Z,29.93
2023-05-09T17:26:59.403Z,29.65
2023-05-09T17:29:29.509Z,30.37
2023-05-09T17:32:00.847Z,30.37
2023-05-09T17:34:30.257Z,30.22
2023-05-09T17:37:02.355Z,30.67
2023-05-09T17:39:32.809Z,30.45
2023-05-09T17:42:03.770Z,30.76
2023-05-09T17:44:32.990Z,30.73
2023-05-09T17:47:02.829Z,30.44
2023-05-09T17:49:33.157Z,30.78
2023-05-09T17:52:03.887Z,31.03
2023-05-09T17:54:33.063Z,31.14
2023-05-09T17:57:04.331Z,31.44
2023-05-09T17:59:36.179Z,31.33
2023-05-09T18:02:05.879Z,31.54
2023-05-09T18:04:35.579Z,31.80
2023-05-09T18:07:07.196Z,31.37
2023-05-09T18:09:36.369Z,31.14
2023-05-09T18:12:08.044Z,31.69
2023-05-09T18:14:39.734Z,31.90
2023-05-09T18:17:09.324Z,31.70
2023-05-09T18:19:40.125Z,31.90
2023-05-09T18:22:10.917Z,31.84
2023-05-09T18:24:40.109Z,32.03
2023-05-09T18:27:11.874Z,32.19
2023-05-09T18:29:40.991Z,32.30
2023-05-09T18:32:10.527Z,32.21
2023-05-09T18:34:40.164Z,32.40
2023-05-09T18:37:10.541Z,32.35
2023-05-09T18:39:39.891Z,32.38
2023-05-09T18:42:16.197Z,32.51
2023-05-09T18:44:49.050Z,32.68
2023-05-09T18:47:18.784Z,32.67
2023-05-09T18:49:50.127Z,32.86
2023-05-09T18:52:20.683Z,32.82
2023-05-09T18:54:49.899Z,32.88
2023-05-09T18:57:21.052Z,33.05
2023-05-09T18:59:52.048Z,32.95
2023-05-09T19:02:22.631Z,33.16
2023-05-09T19:04:52.555Z,33.18
2023-05-09T19:07:22.845Z,33.24
2023-05-09T19:09:52.094Z,33.16
2023-05-09T19:12:23.120Z,33.51
2023-05-09T19:14:54.113Z,33.38
2023-05-09T19:17:26.962Z,33.57
2023-05-09T19:19:56.138Z,33.32
2023-05-09T19:22:26.196Z,33.41
2023-05-09T19:24:55.432Z,33.54
2023-05-09T19:27:26.378Z,33.45
2023-05-09T19:29:55.492Z,33.65
2023-05-09T19:32:25.307Z,33.63
2023-05-09T19:34:54.520Z,33.83
2023-05-09T19:37:24.130Z,33.75
2023-05-09T19:39:53.650Z,33.54
2023-05-09T19:42:23.250Z,33.77
2023-05-09T19:44:53.878Z,33.66
2023-05-09T19:47:23.722Z,33.88
2023-05-09T19:49:55.532Z,33.74
2023-05-09T19:52:25.055Z,33.75
2023-05-09T19:54:54.963Z,33.75
2023-05-09T19:57:24.418Z,33.89
2023-05-09T19:59:55.776Z,33.85
2023-05-09T20:02:25.448Z,33.97
2023-05-09T20:04:54.853Z,34.08
2023-05-09T20:07:24.412Z,34.07
2023-05-09T20:09:53.678Z,33.96
2023-05-09T20:12:27.903Z,33.80
2023-05-09T20:15:00.349Z,33.88
2023-05-09T20:17:32.701Z,34.01
2023-05-09T20:20:01.976Z,34.07
2023-05-09T20:22:31.731Z,34.19
2023-05-09T20:25:00.936Z,34.07
2023-05-09T20:27:30.575Z,34.04
2023-05-09T20:30:01.242Z,34.11
2023-05-09T20:32:32.245Z,34.32
2023-05-09T20:35:01.829Z,34.22
2023-05-09T20:37:32.032Z,34.55
2023-05-09T20:40:02.461Z,34.16
2023-05-09T20:42:32.354Z,34.04
2023-05-09T20:45:04.700Z,34.32
2023-05-09T20:47:34.655Z,34.46
2023-05-09T20:50:05.717Z,34.10
2023-05-09T20:52:35.811Z,34.16
2023-05-09T20:55:09.212Z,34.58
2023-05-09T20:57:51.727Z,34.30
2023-05-09T21:03:26.183Z,34.45
2023-05-09T21:06:08.277Z,34.50
2023-05-09T21:12:14.780Z,34.52
2023-05-09T21:21:51.517Z,34.70
2023-05-09T21:24:31.313Z,34.50
2023-05-09T21:30:35.339Z,34.61
2023-05-09T21:33:54.328Z,34.29
2023-05-09T21:39:48.539Z,34.46
2023-05-09T21:49:46.279Z,34.58
2023-05-09T22:10:44.137Z,34.55
2023-05-09T22:13:46.674Z,34.76
2023-05-09T22:16:24.917Z,35.00
2023-05-09T22:37:03.447Z,34.71
2023-05-09T22:40:06.865Z,34.61
2023-05-09T22:51:07.862Z,34.84
2023-05-09T22:53:48.188Z,34.63
2023-05-09T22:56:24.325Z,35.02
2023-05-09T23:01:52.900Z,34.78
2023-05-09T23:04:39.075Z,34.58
2023-05-09T23:07:10.519Z,34.72
2023-05-09T23:13:08.043Z,35.07
2023-05-09T23:15:42.952Z,34.90
2023-05-09T23:18:13.775Z,34.85
2023-05-09T23:20:43.761Z,34.74
2023-05-09T23:23:14.761Z,34.83
2023-05-09T23:26:03.457Z,34.55
2023-05-09T23:28:49.732Z,34.74
2023-05-09T23:31:19.700Z,34.90
2023-05-09T23:33:49.413Z,34.93
2023-05-09T23:36:26.308Z,35.06
2023-05-09T23:38:56.426Z,35.17
2023-05-09T23:41:28.161Z,34.75
2023-05-09T23:43:59.666Z,34.74
2023-05-09T23:46:29.936Z,35.15
2023-05-09T23:49:20.261Z,34.90
2023-05-09T23:51:54.728Z,34.98
2023-05-09T23:54:29.147Z,35.22
2023-05-09T23:57:04.948Z,35.01
